createdAt,value
2019-05-05T00:48:08.804Z,3.62
2019-05-05T00:54:08.807Z,3.65
2019-05-05T01:00:08.815Z,3.73
2019-05-05T01:06:08.843Z,3.74
2019-05-05T01:12:08.792Z,3.74
2019-05-05T01:18:08.844Z,3.72
2019-05-05T01:24:08.923Z,3.68
2019-05-05T01:30:08.829Z,3.65
2019-05-05T01:36:08.783Z,3.66
2019-05-05T01:42:08.795Z,3.65
2019-05-05T01:48:08.821Z,3.65
2019-05-05T01:54:08.866Z,3.62
2019-05-05T02:00:08.846Z,3.50
2019-05-05T02:06:08.825Z,3.30
2019-05-05T02:12:08.859Z,3.07
2019-05-05T02:18:08.802Z,2.96
2019-05-05T02:24:08.812Z,2.80
2019-05-05T02:30:08.866Z,2.61
2019-05-05T02:36:08.864Z,2.65
2019-05-05T02:42:08.867Z,2.76
2019-05-05T02:48:08.817Z,2.79
2019-05-05T02:54:08.924Z,2.86
2019-05-05T03:00:08.829Z,2.90
2019-05-05T03:06:08.854Z,2.92
2019-05-05T03:12:10.983Z,2.93
2019-05-05T03:18:08.869Z,2.90
2019-05-05T03:24:08.870Z,2.86
2019-05-05T03:30:08.871Z,2.81
2019-05-05T03:36:08.894Z,2.81
2019-05-05T03:42:08.869Z,2.79
2019-05-05T03:48:08.875Z,2.74
2019-05-05T03:54:08.891Z,2.65
2019-05-05T04:00:08.834Z,2.63
2019-05-05T04:06:09.913Z,2.61
2019-05-05T04:12:08.887Z,2.58
2019-05-05T04:18:08.902Z,2.53
2019-05-05T04:24:10.260Z,2.43
2019-05-05T04:30:08.884Z,2.34
2019-05-05T04:36:08.861Z,2.28
2019-05-05T04:42:08.890Z,2.28
2019-05-05T04:48:09.903Z,2.28
2019-05-05T04:54:08.921Z,2.35
2019-05-05T05:00:08.933Z,2.44
2019-05-05T05:06:08.908Z,2.56
2019-05-05T05:12:08.907Z,2.72
2019-05-05T05:18:08.905Z,2.82
2019-05-05T05:24:08.918Z,3.01
2019-05-05T05:30:08.930Z,3.30
2019-05-05T05:36:09.959Z,3.53
2019-05-05T05:42:08.921Z,3.63
2019-05-05T05:48:08.953Z,3.78
2019-05-05T05:54:08.894Z,3.94
2019-05-05T06:00:08.891Z,4.14
2019-05-05T06:06:08.911Z,4.78
2019-05-05T06:12:08.942Z,5.47
2019-05-05T06:18:08.918Z,5.70
2019-05-05T06:24:10.663Z,6.19
2019-05-05T06:30:08.949Z,6.64
2019-05-05T06:36:08.958Z,7.05
2019-05-05T06:42:34.237Z,7.31
2019-05-05T06:48:09.017Z,6.76
2019-05-05T06:54:08.949Z,7.22
2019-05-05T07:00:08.985Z,7.57
2019-05-05T07:06:08.935Z,7.37
2019-05-05T07:12:08.974Z,7.62
2019-05-05T07:18:08.924Z,8.05
2019-05-05T07:24:09.078Z,8.13
2019-05-05T07:30:09.030Z,7.68
2019-05-05T07:36:08.977Z,8.13
2019-05-05T07:42:08.959Z,8.74
2019-05-05T07:48:08.971Z,9.03
2019-05-05T07:54:08.963Z,8.37
2019-05-05T08:00:08.986Z,7.57
2019-05-05T08:06:09.082Z,7.86
2019-05-05T08:12:08.953Z,7.08
2019-05-05T08:18:08.963Z,7.00
2019-05-05T08:24:08.990Z,8.22
2019-05-05T08:30:08.975Z,8.85
2019-05-05T08:36:08.989Z,9.41
2019-05-05T08:42:09.001Z,9.48
2019-05-05T08:48:08.991Z,9.66
2019-05-05T08:54:09.002Z,9.39
2019-05-05T09:00:08.982Z,9.43
2019-05-05T09:06:09.010Z,10.19
2019-05-05T09:12:09.025Z,10.73
2019-05-05T09:18:09.014Z,11.20
2019-05-05T09:24:09.033Z,9.45
2019-05-05T09:30:09.037Z,9.78
2019-05-05T09:36:09.042Z,10.47
2019-05-05T09:42:10.231Z,10.66
2019-05-05T09:48:09.072Z,11.37
2019-05-05T09:54:13.942Z,11.61
2019-05-05T10:00:09.058Z,10.83
2019-05-05T10:06:09.081Z,11.16
2019-05-05T10:12:09.090Z,12.05
2019-05-05T10:18:09.113Z,11.76
2019-05-05T10:24:09.081Z,11.57
2019-05-05T10:30:10.699Z,11.99
2019-05-05T10:36:09.222Z,12.64
2019-05-05T10:42:09.359Z,13.30
2019-05-05T10:48:09.138Z,11.34
2019-05-05T10:54:09.266Z,10.26
2019-05-05T11:00:12.467Z,9.62
2019-05-05T11:06:09.123Z,9.39
2019-05-05T11:12:09.192Z,10.29
2019-05-05T11:18:09.150Z,11.64
2019-05-05T11:24:09.245Z,10.64
2019-05-05T11:30:09.120Z,9.83
2019-05-05T11:36:09.167Z,9.74
2019-05-05T11:42:09.210Z,10.01
2019-05-05T11:48:09.206Z,10.21
2019-05-05T11:54:09.290Z,10.34
2019-05-05T12:00:09.158Z,10.23
2019-05-05T12:06:09.272Z,10.98
2019-05-05T12:12:10.220Z,11.49
2019-05-05T12:18:09.162Z,12.54
2019-05-05T12:24:09.259Z,10.87
2019-05-05T12:30:10.953Z,10.40
2019-05-05T12:36:09.284Z,10.02
2019-05-05T12:42:09.166Z,10.04
2019-05-05T12:48:09.260Z,9.65
2019-05-05T12:54:10.312Z,9.35
2019-05-05T13:00:09.207Z,9.75
2019-05-05T13:06:09.171Z,9.88
2019-05-05T13:12:09.254Z,9.89
2019-05-05T13:18:09.229Z,10.51
2019-05-05T13:24:09.253Z,10.69
2019-05-05T13:30:09.275Z,10.15
2019-05-05T13:36:09.220Z,9.76
2019-05-05T13:42:09.202Z,9.62
2019-05-05T13:48:09.209Z,9.67
2019-05-05T13:54:09.222Z,10.04
2019-05-05T14:00:09.234Z,10.05
2019-05-05T14:06:09.326Z,10.00
2019-05-05T14:12:09.321Z,10.03
2019-05-05T14:18:09.268Z,9.92
2019-05-05T14:24:09.233Z,10.06
2019-05-05T14:30:10.605Z,9.92
2019-05-05T14:36:09.307Z,9.93
2019-05-05T14:42:09.289Z,10.07
2019-05-05T14:48:09.274Z,10.22
2019-05-05T14:54:10.780Z,10.13
2019-05-05T15:00:10.268Z,9.93
2019-05-05T15:06:09.261Z,9.67
2019-05-05T15:12:09.278Z,9.62
2019-05-05T15:18:09.276Z,9.83
2019-05-05T15:24:09.322Z,10.15
2019-05-05T15:30:09.294Z,10.18
2019-05-05T15:36:09.307Z,10.12
2019-05-05T15:42:09.278Z,10.12
2019-05-05T15:48:09.427Z,10.18
2019-05-05T15:54:09.325Z,10.07
2019-05-05T16:00:09.330Z,10.27
2019-05-05T16:06:09.398Z,10.37
2019-05-05T16:12:10.414Z,10.65
2019-05-05T16:18:09.312Z,10.48
2019-05-05T16:24:09.306Z,10.24
2019-05-05T16:30:09.376Z,9.98
2019-05-05T16:36:09.450Z,9.80
2019-05-05T16:42:09.324Z,9.71
2019-05-05T16:48:09.313Z,9.82
2019-05-05T16:54:09.317Z,9.84
2019-05-05T17:00:09.441Z,9.70
2019-05-05T17:06:09.439Z,9.59
2019-05-05T17:12:09.409Z,9.46
2019-05-05T17:18:09.374Z,9.34
2019-05-05T17:24:09.372Z,9.24
2019-05-05T17:30:10.414Z,9.17
2019-05-05T17:36:09.459Z,9.08
2019-05-05T17:42:09.368Z,8.96
2019-05-05T17:48:09.428Z,8.92
2019-05-05T17:54:09.505Z,8.77
2019-05-05T18:00:09.379Z,8.64
2019-05-05T18:06:09.369Z,8.54
2019-05-05T18:12:09.406Z,8.38
2019-05-05T18:18:09.443Z,8.30
2019-05-05T18:24:09.335Z,8.20
2019-05-05T18:30:09.370Z,8.07
2019-05-05T18:36:09.382Z,7.95
2019-05-05T18:42:09.471Z,7.80
2019-05-05T18:48:09.397Z,7.61
2019-05-05T18:54:09.446Z,7.50
2019-05-05T19:00:09.412Z,7.43
2019-05-05T19:06:09.727Z,7.33
2019-05-05T19:12:10.331Z,7.24
2019-05-05T19:18:09.456Z,7.16
2019-05-05T19:24:09.949Z,7.18
2019-05-05T19:30:09.424Z,7.14
2019-05-05T19:36:09.712Z,7.16
2019-05-05T19:42:09.540Z,7.20
2019-05-05T19:48:09.452Z,7.13
2019-05-05T19:54:09.594Z,7.08
2019-05-05T20:00:09.488Z,7.04
2019-05-05T20:06:10.528Z,6.96
2019-05-05T20:12:11.636Z,6.74
2019-05-05T20:18:09.571Z,6.51
2019-05-05T20:24:09.462Z,6.44
2019-05-05T20:30:09.446Z,6.44
2019-05-05T20:36:09.968Z,6.51
2019-05-05T20:42:09.742Z,6.39
2019-05-05T20:48:09.468Z,6.19
2019-05-05T20:54:14.184Z,6.02
2019-05-05T21:00:14.070Z,5.94
2019-05-05T21:06:13.667Z,5.83
2019-05-05T21:12:09.472Z,5.78
2019-05-05T21:18:09.642Z,5.79
2019-05-05T21:24:09.473Z,5.81
2019-05-05T21:30:09.483Z,5.74
2019-05-05T21:36:09.539Z,5.59
2019-05-05T21:42:09.546Z,5.55
2019-05-05T21:48:09.542Z,5.53
2019-05-05T21:54:09.483Z,5.50
2019-05-05T22:00:09.509Z,5.52
2019-05-05T22:06:09.624Z,5.47
2019-05-05T22:12:09.504Z,5.42
2019-05-05T22:18:09.536Z,5.42
2019-05-05T22:24:09.541Z,5.34
2019-05-05T22:30:10.471Z,5.33
2019-05-05T22:36:09.499Z,5.34
2019-05-05T22:42:09.540Z,5.31
2019-05-05T22:48:09.870Z,5.29
2019-05-05T22:54:10.662Z,5.32
2019-05-05T23:00:22.567Z,5.39
2019-05-05T23:06:09.544Z,5.49
2019-05-05T23:12:09.515Z,5.57
2019-05-05T23:18:09.542Z,5.59
2019-05-05T23:24:09.552Z,5.57
2019-05-05T23:30:09.561Z,5.51
2019-05-05T23:36:10.613Z,5.43
2019-05-05T23:42:09.578Z,5.44
2019-05-05T23:48:09.545Z,5.55
2019-05-05T23:54:09.622Z,5.51
